Wetterdaten: aktuell Mittwoch, 06.05.2026 23:30
Datum Zeit Temp. A. Feuchte A. Luftdruck Regen Wind Richtung Richtung Sonnenschein Solar Windböen
06.05.2026 23:30 12,3 °C 93 % 1007,7 hPa 0,0 l/m² 4,9 km/h (1 Bft) O-NO 65 ° 0 min 0 W/m² 11,3 km/h (2 Bft)
06.05.2026 22:30 12,6 °C 93 % 1007,3 hPa 0,0 l/m² 5,3 km/h (1 Bft) O-NO 57 ° 0 min 0 W/m² 12,9 km/h (3 Bft)
06.05.2026 21:30 13,2 °C 92 % 1006,9 hPa 0,0 l/m² 2,5 km/h (1 Bft) N 355 ° 0 min 0 W/m² 9,7 km/h (2 Bft)
06.05.2026 20:30 13,7 °C 91 % 1007,0 hPa 0,0 l/m² 1,8 km/h (1 Bft) NO 47 ° 0 min 0 W/m² 6,4 km/h (2 Bft)
06.05.2026 19:30 14,3 °C 88 % 1006,4 hPa 0,0 l/m² 2,0 km/h (1 Bft) N-NO 28 ° 0 min 4 W/m² 9,7 km/h (2 Bft)
06.05.2026 18:30 15,0 °C 88 % 1006,0 hPa 0,2 l/m² 1,9 km/h (1 Bft) O-NO 58 ° 0 min 31 W/m² 6,4 km/h (2 Bft)
06.05.2026 17:30 15,2 °C 88 % 1005,6 hPa 0,8 l/m² 2,7 km/h (1 Bft) O-SO 113 ° 0 min 59 W/m² 12,9 km/h (3 Bft)
06.05.2026 16:30 19,2 °C 62 % 1005,7 hPa 0,0 l/m² 2,2 km/h (1 Bft) NW 326 ° 0 min 103 W/m² 8,0 km/h (2 Bft)
06.05.2026 15:30 20,8 °C 56 % 1005,8 hPa 0,0 l/m² 3,5 km/h (1 Bft) W-SW 258 ° 45 min 343 W/m² 11,3 km/h (2 Bft)
06.05.2026 14:30 20,9 °C 54 % 1006,1 hPa 0,0 l/m² 6,4 km/h (2 Bft) S 191 ° 45 min 351 W/m² 17,7 km/h (3 Bft)
06.05.2026 13:30 20,1 °C 56 % 1006,5 hPa 0,0 l/m² 10,0 km/h (2 Bft) W 270 ° 30 min 517 W/m² 27,4 km/h (4 Bft)
06.05.2026 12:30 18,7 °C 64 % 1006,6 hPa 0,0 l/m² 10,3 km/h (2 Bft) SW 215 ° 15 min 449 W/m² 24,1 km/h (4 Bft)
06.05.2026 11:30 18,5 °C 66 % 1006,8 hPa 0,0 l/m² 9,3 km/h (2 Bft) W 270 ° 15 min 348 W/m² 20,9 km/h (4 Bft)
06.05.2026 10:30 17,1 °C 72 % 1006,6 hPa 0,0 l/m² 8,5 km/h (2 Bft) S-SW 211 ° 30 min 273 W/m² 22,5 km/h (4 Bft)
06.05.2026 09:30 14,6 °C 86 % 1006,3 hPa 0,0 l/m² 6,7 km/h (2 Bft) S-SW 202 ° 0 min 150 W/m² 19,3 km/h (3 Bft)
06.05.2026 08:30 15,2 °C 86 % 1005,7 hPa 0,0 l/m² 6,0 km/h (2 Bft) S 172 ° 30 min 513 W/m² 19,3 km/h (3 Bft)
06.05.2026 07:30 13,2 °C 89 % 1006,1 hPa 0,0 l/m² 8,8 km/h (2 Bft) S 185 ° 15 min 216 W/m² 24,1 km/h (4 Bft)
06.05.2026 06:30 11,8 °C 92 % 1005,9 hPa 0,0 l/m² 7,3 km/h (2 Bft) S 173 ° 0 min 54 W/m² 14,5 km/h (3 Bft)
06.05.2026 05:30 11,6 °C 92 % 1005,5 hPa 0,0 l/m² 8,8 km/h (2 Bft) S 188 ° 0 min 61 W/m² 17,7 km/h (3 Bft)
06.05.2026 04:30 11,1 °C 95 % 1005,5 hPa 0,0 l/m² 5,5 km/h (1 Bft) S 190 ° 0 min 0 W/m² 19,3 km/h (3 Bft)
06.05.2026 03:30 11,5 °C 95 % 1005,8 hPa 0,0 l/m² 2,7 km/h (1 Bft) S 172 ° 0 min 0 W/m² 9,7 km/h (2 Bft)
06.05.2026 02:30 11,4 °C 95 % 1006,2 hPa 0,0 l/m² 1,7 km/h (1 Bft) S 186 ° 0 min 0 W/m² 6,4 km/h (2 Bft)
06.05.2026 01:30 11,3 °C 95 % 1006,0 hPa 0,2 l/m² 2,9 km/h (1 Bft) S-SO 167 ° 0 min 0 W/m² 11,3 km/h (2 Bft)
06.05.2026 00:30 11,4 °C 94 % 1006,1 hPa 1,2 l/m² 4,5 km/h (1 Bft) O-NO 70 ° 0 min 0 W/m² 9,7 km/h (2 Bft)
06.05.2026 00:00 11,4 °C 94 % 1007,4 hPa 0,0 l/m² 6,8 km/h (2 Bft) S 175 ° 0 min 0 W/m² 17,7 km/h (3 Bft)
_ Min-Zeit 05:00 14:30 01:00 - 17:45 - - - - 17:45
Minimum _ 10,9 °C 54 % 1005,2 hPa - 0,0 km/h (0 Bft) - - - - 0,0 km/h (0 Bft)
_ Max-Zeit 14:15 00:45 23:30 00:15 10:15 - - 07:15 11:15 11:00
Maximum _ 21,4 °C 95 % 1007,7 hPa 0,8 l/m² 12,0 km/h
W-SW (2 Bft)
- - 15 min 807 W/m² 29,0 km/h
W (5 Bft)
Durchschnitt _ 14,8 °C 82 % 1006,3 hPa #2,8 l/m² 5,7 km/h (1 Bft) S - #3:45 h 152 W/m² 15,5 km/h (3 Bft)